Flight Track Log - Related Links

Times and Time Zones

All times are in EDT time to prevent confusion due to time zone crossing. See the N830QS flight status page for this flight to view local times or setup timezone preferences in your user account.

Time Position Orientation Groundspeed Altitude Reporting Facility
EDT Latitude Longitude Course Direction KTS MPH feet Rate Location/Type
Thu 08:44:41 AM 30.0500 -95.5525 232° Southwest 148 170 700  Level Houston Center
Thu 08:46:07 AM 30.0017 -95.6233 232° Southwest 194 223 2,900 1,824 Climbing Houston Center
Thu 08:47:09 AM 29.9706 -95.6753 235° Southwest 204 235 5,200 2,651 Climbing Houston Center
Thu 08:48:16 AM 29.9072 -95.6925 193° South 232 267 8,600 3,094 Climbing Houston Center
Thu 08:49:17 AM 29.8364 -95.7006 186° South 248 285 11,800 2,690 Climbing Houston Center
Thu 08:50:12 AM 29.7764 -95.6619 151° Southeast 283 326 13,800 1,023 Climbing Houston Center
Thu 08:51:26 AM 29.6758 -95.6247 162° South 330 380 14,000 98 Climbing Houston Center
Thu 08:52:14 AM 29.5928 -95.6522 196° South 358 412 14,000  Level Houston Center
Thu 08:53:21 AM 29.4911 -95.6881 197° South 350 403 14,000  Level Houston Center
Thu 08:54:32 AM 29.3933 -95.7217 197° South 359 413 14,000  Level Houston Center
Thu 08:55:34 AM 29.2825 -95.7725 202° Southwest 360 414 14,000  Level Houston Center
Thu 08:56:36 AM 29.1922 -95.8194 204° Southwest 357 411 14,000  Level Houston Center
Thu 08:57:38 AM 29.1019 -95.8639 203° Southwest 356 410 14,000 -387 Level Houston Center
Thu 08:58:40 AM 29.0142 -95.9119 206° Southwest 353 406 13,200 -919 Descending Houston Center
Thu 08:59:42 AM 28.9394 -95.9967 225° Southwest 355 409 12,100 -629 Descending Houston Center
Thu 09:00:44 AM 28.8700 -96.0697 223° Southwest 343 395 11,900 -97 Descending Houston Center
Thu 09:01:46 AM 28.7975 -96.1461 223° Southwest 351 404 11,900  Level Houston Center
Thu 09:02:48 AM 28.7261 -96.2194 222° Southwest 346 398 11,900  Level Houston Center
Thu 09:03:50 AM 28.6419 -96.3083 223° Southwest 343 395 11,900  Level Houston Center
Thu 09:04:52 AM 28.5717 -96.3814 222° Southwest 342 394 11,900 48 Level Houston Center
Thu 09:05:54 AM 28.5019 -96.4550 223° Southwest 341 392 12,000 48 Climbing Houston Center
Thu 09:06:56 AM 28.4306 -96.5289 222° Southwest 345 397 12,000  Level Houston Center
Thu 09:07:58 AM 28.3592 -96.6025 222° Southwest 346 398 12,000  Level Houston Center
Thu 09:09:00 AM 28.2869 -96.6781 223° Southwest 350 403 12,000  Level Houston Center
Thu 09:09:47 AM 28.2164 -96.7500 222° Southwest 349 402 12,000  Level Houston Center
Thu 09:10:42 AM 28.1544 -96.8158 223° Southwest 343 395 12,000  Level Houston Center
Thu 09:11:43 AM 28.0864 -96.8850 222° Southwest 343 395 12,000  Level Houston Center
Thu 09:12:43 AM 28.0108 -96.9622 222° Southwest 352 405 12,000  Level Houston Center
Thu 09:13:44 AM 27.9411 -97.0339 222° Southwest 351 404 12,000  Level Houston Center
Thu 09:14:44 AM 27.8658 -97.1133 223° Southwest 351 404 12,000  Level Houston Center
Thu 09:15:45 AM 27.7900 -97.1903 222° Southwest 347 399 12,000  Level Houston Center
Thu 09:16:46 AM 27.7197 -97.2592 221° Southwest 347 399 12,000  Level Houston Center
Thu 09:17:46 AM 27.6356 -97.2969 202° Southwest 345 397 12,000  Level Houston Center
Thu 09:18:17 AM 27.5814 -97.2992 182° South 349 402 12,000  Level Houston Center
Thu 09:18:47 AM 27.5369 -97.3011 182° South 342 394 12,000  Level Houston Center
Thu 09:19:19 AM 27.4850 -97.3039 183° South 348 400 12,000  Level Houston Center
Thu 09:20:21 AM 27.3892 -97.3083 182° South 345 397 12,000  Level Houston Center
Thu 09:21:23 AM 27.2906 -97.3133 183° South 346 398 12,000  Level Houston Center
Thu 09:22:25 AM 27.2019 -97.3169 182° South 337 388 12,000  Level Houston Center
Thu 09:23:27 AM 27.1075 -97.3203 182° South 337 388 12,000  Level Houston Center
Thu 09:24:29 AM 26.9933 -97.3261 183° South 340 391 12,000  Level Houston Center
Thu 09:25:31 AM 26.8983 -97.3314 183° South 340 391 12,000 -48 Level Houston Center
Thu 09:26:33 AM 26.7950 -97.3350 182° South 340 391 11,900 -48 Descending Houston Center
Thu 09:27:35 AM 26.7036 -97.3397 183° South 331 381 11,900 -629 Level Houston Center
Thu 09:28:37 AM 26.6036 -97.3447 183° South 332 382 10,600 -1,355 Descending Houston Center
Thu 09:29:39 AM 26.5200 -97.3472 182° South 300 345 9,100 -1,500 Descending Houston Center
Thu 09:30:41 AM 26.4428 -97.3811 201° Southwest 281 323 7,500 -1,268 Descending Houston Center
Thu 09:32:01 AM 26.3556 -97.4306 207° Southwest 258 297 6,100 -1,016 Descending Houston Center
Thu 09:32:45 AM 26.3131 -97.4542 206° Southwest 259 298 5,400 -1,019 Descending Houston Center
Thu 09:33:47 AM 26.2456 -97.4928 207° Southwest 253 291 4,300 -823 Descending Houston Center
Thu 09:34:49 AM 26.1842 -97.5269 207° Southwest 246 283 3,700 -532 Descending Houston Center
Thu 09:35:51 AM 26.1181 -97.5483 196° South 248 285 3,200 -774 Descending Houston Center
Thu 09:36:53 AM 26.0461 -97.5583 187° South 244 281 2,100 -629 Descending Houston Center
Thu 09:37:55 AM 25.9972 -97.5228 147° Southeast 210 242 1,900 -472 Descending Houston Center
Thu 09:39:00 AM 25.9594 -97.4842 137° Southeast 152 175 1,100 -726 Descending Houston Center
Thu 09:39:59 AM 25.9322 -97.4506 132° Southeast 150 173 400 -496 Descending Houston Center
Thu 09:41:01 AM 25.9058 -97.4219 136° Southeast 136 157 100 -290 Descending Houston Center

Login

Don't have an account? Register now (free) for customized features, flight alerts, and more!